sensor_id;sensor_type;location;lat;lon;timestamp;P1;durP1;ratioP1;P2;durP2;ratioP2
52025;SDS011;38041;40.058;18.328;2023-02-22T00:00:44;55.67;;;32.73;;
52025;SDS011;38041;40.058;18.328;2023-02-22T00:05:44;45.20;;;29.50;;
52025;SDS011;38041;40.058;18.328;2023-02-22T00:08:13;68.63;;;37.97;;
52025;SDS011;38041;40.058;18.328;2023-02-22T00:10:41;64.13;;;35.73;;
52025;SDS011;38041;40.058;18.328;2023-02-22T00:13:10;58.27;;;33.97;;
52025;SDS011;38041;40.058;18.328;2023-02-22T00:15:39;54.97;;;31.43;;
52025;SDS011;38041;40.058;18.328;2023-02-22T00:18:08;53.17;;;32.17;;
52025;SDS011;38041;40.058;18.328;2023-02-22T00:20:36;58.23;;;34.80;;
52025;SDS011;38041;40.058;18.328;2023-02-22T00:23:05;73.30;;;43.13;;
52025;SDS011;38041;40.058;18.328;2023-02-22T00:25:33;61.63;;;38.23;;
52025;SDS011;38041;40.058;18.328;2023-02-22T00:28:01;58.33;;;36.90;;
52025;SDS011;38041;40.058;18.328;2023-02-22T00:30:31;52.67;;;35.43;;
52025;SDS011;38041;40.058;18.328;2023-02-22T00:33:02;44.73;;;29.53;;
52025;SDS011;38041;40.058;18.328;2023-02-22T00:35:32;45.07;;;30.70;;
52025;SDS011;38041;40.058;18.328;2023-02-22T00:38:01;47.70;;;31.67;;
52025;SDS011;38041;40.058;18.328;2023-02-22T00:40:29;42.83;;;28.37;;
52025;SDS011;38041;40.058;18.328;2023-02-22T00:42:58;41.53;;;27.77;;
52025;SDS011;38041;40.058;18.328;2023-02-22T00:45:27;46.43;;;29.33;;
52025;SDS011;38041;40.058;18.328;2023-02-22T00:47:55;42.70;;;27.07;;
52025;SDS011;38041;40.058;18.328;2023-02-22T00:50:24;39.83;;;24.67;;
52025;SDS011;38041;40.058;18.328;2023-02-22T00:52:52;41.57;;;25.30;;
52025;SDS011;38041;40.058;18.328;2023-02-22T00:55:22;43.63;;;29.03;;
52025;SDS011;38041;40.058;18.328;2023-02-22T00:57:51;43.73;;;27.60;;
52025;SDS011;38041;40.058;18.328;2023-02-22T01:00:20;44.60;;;27.37;;
52025;SDS011;38041;40.058;18.328;2023-02-22T01:02:48;45.17;;;27.20;;
52025;SDS011;38041;40.058;18.328;2023-02-22T01:05:17;42.40;;;27.90;;
52025;SDS011;38041;40.058;18.328;2023-02-22T01:07:47;50.27;;;29.17;;
52025;SDS011;38041;40.058;18.328;2023-02-22T01:10:16;42.57;;;28.40;;
52025;SDS011;38041;40.058;18.328;2023-02-22T01:12:45;41.83;;;26.07;;
52025;SDS011;38041;40.058;18.328;2023-02-22T01:15:13;42.40;;;26.63;;
52025;SDS011;38041;40.058;18.328;2023-02-22T01:17:41;45.60;;;29.03;;
52025;SDS011;38041;40.058;18.328;2023-02-22T01:20:10;42.90;;;26.97;;
52025;SDS011;38041;40.058;18.328;2023-02-22T01:22:41;42.50;;;25.03;;
52025;SDS011;38041;40.058;18.328;2023-02-22T01:25:09;39.60;;;23.80;;
52025;SDS011;38041;40.058;18.328;2023-02-22T01:27:38;37.07;;;24.10;;
52025;SDS011;38041;40.058;18.328;2023-02-22T01:30:06;36.00;;;23.77;;
52025;SDS011;38041;40.058;18.328;2023-02-22T01:32:34;32.47;;;21.27;;
52025;SDS011;38041;40.058;18.328;2023-02-22T01:35:03;36.30;;;21.87;;
52025;SDS011;38041;40.058;18.328;2023-02-22T01:37:34;30.20;;;21.67;;
52025;SDS011;38041;40.058;18.328;2023-02-22T01:40:03;36.00;;;22.67;;
52025;SDS011;38041;40.058;18.328;2023-02-22T01:42:32;34.17;;;22.40;;
52025;SDS011;38041;40.058;18.328;2023-02-22T01:47:47;33.27;;;21.87;;
52025;SDS011;38041;40.058;18.328;2023-02-22T01:50:14;39.23;;;24.70;;
52025;SDS011;38041;40.058;18.328;2023-02-22T01:52:42;33.13;;;22.23;;
52025;SDS011;38041;40.058;18.328;2023-02-22T01:55:10;33.70;;;22.37;;
52025;SDS011;38041;40.058;18.328;2023-02-22T01:57:38;33.17;;;21.30;;
52025;SDS011;38041;40.058;18.328;2023-02-22T02:00:10;31.03;;;19.73;;
52025;SDS011;38041;40.058;18.328;2023-02-22T02:05:09;29.63;;;20.03;;
52025;SDS011;38041;40.058;18.328;2023-02-22T02:07:37;26.63;;;18.97;;
52025;SDS011;38041;40.058;18.328;2023-02-22T02:10:10;26.67;;;19.70;;
52025;SDS011;38041;40.058;18.328;2023-02-22T02:12:41;27.27;;;19.38;;
52025;SDS011;38041;40.058;18.328;2023-02-22T02:17:43;38.37;;;19.93;;
52025;SDS011;38041;40.058;18.328;2023-02-22T02:20:14;38.00;;;20.80;;
52025;SDS011;38041;40.058;18.328;2023-02-22T02:33:27;111.70;;;28.93;;
52025;SDS011;38041;40.058;18.328;2023-02-22T02:38:35;193.03;;;33.63;;
52025;SDS011;38041;40.058;18.328;2023-02-22T02:43:52;162.63;;;30.80;;
52025;SDS011;38041;40.058;18.328;2023-02-22T02:46:34;207.47;;;32.30;;
52025;SDS011;38041;40.058;18.328;2023-02-22T02:49:09;104.90;;;29.50;;
52025;SDS011;38041;40.058;18.328;2023-02-22T02:51:39;134.80;;;30.70;;
52025;SDS011;38041;40.058;18.328;2023-02-22T02:54:07;116.70;;;31.50;;
52025;SDS011;38041;40.058;18.328;2023-02-22T02:56:35;152.77;;;33.37;;
52025;SDS011;38041;40.058;18.328;2023-02-22T02:59:18;108.27;;;32.13;;
52025;SDS011;38041;40.058;18.328;2023-02-22T03:20:38;25.27;;;12.00;;
52025;SDS011;38041;40.058;18.328;2023-02-22T03:23:21;46.92;;;12.95;;
52025;SDS011;38041;40.058;18.328;2023-02-22T03:25:52;39.43;;;14.10;;
52025;SDS011;38041;40.058;18.328;2023-02-22T03:28:22;69.97;;;12.47;;
52025;SDS011;38041;40.058;18.328;2023-02-22T03:30:53;40.77;;;13.73;;
52025;SDS011;38041;40.058;18.328;2023-02-22T03:33:24;29.10;;;12.63;;
52025;SDS011;38041;40.058;18.328;2023-02-22T03:38:47;34.70;;;13.37;;
52025;SDS011;38041;40.058;18.328;2023-02-22T03:41:16;62.43;;;15.30;;
52025;SDS011;38041;40.058;18.328;2023-02-22T03:43:47;28.63;;;14.43;;
52025;SDS011;38041;40.058;18.328;2023-02-22T03:46:16;42.53;;;13.87;;
52025;SDS011;38041;40.058;18.328;2023-02-22T03:48:59;28.00;;;14.40;;
52025;SDS011;38041;40.058;18.328;2023-02-22T03:51:33;35.33;;;15.00;;
52025;SDS011;38041;40.058;18.328;2023-02-22T03:54:02;33.97;;;15.67;;
52025;SDS011;38041;40.058;18.328;2023-02-22T03:56:38;47.30;;;15.80;;
52025;SDS011;38041;40.058;18.328;2023-02-22T03:59:13;39.23;;;15.17;;
52025;SDS011;38041;40.058;18.328;2023-02-22T04:01:42;29.80;;;15.87;;
52025;SDS011;38041;40.058;18.328;2023-02-22T04:04:10;46.97;;;14.37;;
52025;SDS011;38041;40.058;18.328;2023-02-22T04:06:38;35.30;;;16.47;;
52025;SDS011;38041;40.058;18.328;2023-02-22T04:09:05;32.43;;;14.50;;
52025;SDS011;38041;40.058;18.328;2023-02-22T04:11:34;33.07;;;15.10;;
52025;SDS011;38041;40.058;18.328;2023-02-22T04:14:02;49.67;;;14.77;;
52025;SDS011;38041;40.058;18.328;2023-02-22T04:16:31;43.40;;;12.97;;
52025;SDS011;38041;40.058;18.328;2023-02-22T04:18:59;48.70;;;13.80;;
52025;SDS011;38041;40.058;18.328;2023-02-22T04:21:27;64.00;;;14.90;;
52025;SDS011;38041;40.058;18.328;2023-02-22T04:23:55;37.50;;;13.97;;
52025;SDS011;38041;40.058;18.328;2023-02-22T04:26:23;30.83;;;13.63;;
52025;SDS011;38041;40.058;18.328;2023-02-22T04:28:54;25.57;;;12.77;;
52025;SDS011;38041;40.058;18.328;2023-02-22T04:31:24;60.90;;;15.67;;
52025;SDS011;38041;40.058;18.328;2023-02-22T04:33:53;68.87;;;14.83;;
52025;SDS011;38041;40.058;18.328;2023-02-22T04:36:26;61.47;;;14.53;;
52025;SDS011;38041;40.058;18.328;2023-02-22T04:38:54;45.47;;;13.20;;
52025;SDS011;38041;40.058;18.328;2023-02-22T04:41:21;21.37;;;11.97;;
52025;SDS011;38041;40.058;18.328;2023-02-22T04:43:51;50.07;;;12.13;;
52025;SDS011;38041;40.058;18.328;2023-02-22T04:46:21;91.03;;;13.37;;
52025;SDS011;38041;40.058;18.328;2023-02-22T04:48:51;90.87;;;13.63;;
52025;SDS011;38041;40.058;18.328;2023-02-22T04:51:22;75.17;;;14.03;;
52025;SDS011;38041;40.058;18.328;2023-02-22T04:53:59;123.37;;;15.50;;
52025;SDS011;38041;40.058;18.328;2023-02-22T04:56:28;124.50;;;14.20;;
52025;SDS011;38041;40.058;18.328;2023-02-22T04:58:56;84.63;;;13.63;;
52025;SDS011;38041;40.058;18.328;2023-02-22T05:01:24;138.40;;;15.73;;
52025;SDS011;38041;40.058;18.328;2023-02-22T05:03:52;124.17;;;13.93;;
52025;SDS011;38041;40.058;18.328;2023-02-22T05:06:20;103.63;;;13.30;;
52025;SDS011;38041;40.058;18.328;2023-02-22T05:08:47;68.50;;;12.33;;
52025;SDS011;38041;40.058;18.328;2023-02-22T05:11:15;121.47;;;13.47;;
52025;SDS011;38041;40.058;18.328;2023-02-22T05:13:43;83.60;;;13.73;;
52025;SDS011;38041;40.058;18.328;2023-02-22T05:16:11;117.50;;;12.70;;
52025;SDS011;38041;40.058;18.328;2023-02-22T05:18:38;68.57;;;11.13;;
52025;SDS011;38041;40.058;18.328;2023-02-22T05:21:06;41.47;;;8.43;;
52025;SDS011;38041;40.058;18.328;2023-02-22T05:23:34;37.70;;;7.90;;
52025;SDS011;38041;40.058;18.328;2023-02-22T05:26:02;36.37;;;8.67;;
52025;SDS011;38041;40.058;18.328;2023-02-22T05:28:29;14.37;;;8.47;;
52025;SDS011;38041;40.058;18.328;2023-02-22T05:30:58;15.93;;;9.13;;
52025;SDS011;38041;40.058;18.328;2023-02-22T05:33:25;10.23;;;6.97;;
52025;SDS011;38041;40.058;18.328;2023-02-22T05:35:53;14.23;;;8.40;;
52025;SDS011;38041;40.058;18.328;2023-02-22T05:38:21;13.70;;;8.23;;
52025;SDS011;38041;40.058;18.328;2023-02-22T05:40:49;12.40;;;8.27;;
52025;SDS011;38041;40.058;18.328;2023-02-22T05:43:17;13.23;;;7.83;;
52025;SDS011;38041;40.058;18.328;2023-02-22T05:45:45;11.80;;;8.43;;
52025;SDS011;38041;40.058;18.328;2023-02-22T05:48:13;14.07;;;9.00;;
52025;SDS011;38041;40.058;18.328;2023-02-22T05:50:40;18.47;;;10.87;;
52025;SDS011;38041;40.058;18.328;2023-02-22T05:53:09;19.33;;;10.40;;
52025;SDS011;38041;40.058;18.328;2023-02-22T05:55:37;17.40;;;12.40;;
52025;SDS011;38041;40.058;18.328;2023-02-22T05:58:05;18.80;;;11.73;;
52025;SDS011;38041;40.058;18.328;2023-02-22T06:00:33;21.10;;;13.40;;
52025;SDS011;38041;40.058;18.328;2023-02-22T06:03:02;20.27;;;12.73;;
52025;SDS011;38041;40.058;18.328;2023-02-22T06:05:30;18.60;;;12.17;;
52025;SDS011;38041;40.058;18.328;2023-02-22T06:07:59;24.00;;;14.87;;
52025;SDS011;38041;40.058;18.328;2023-02-22T06:10:27;29.27;;;16.83;;
52025;SDS011;38041;40.058;18.328;2023-02-22T06:12:56;31.70;;;16.30;;
52025;SDS011;38041;40.058;18.328;2023-02-22T06:15:24;39.00;;;18.93;;
52025;SDS011;38041;40.058;18.328;2023-02-22T06:17:52;53.33;;;21.50;;
52025;SDS011;38041;40.058;18.328;2023-02-22T06:20:21;46.63;;;21.67;;
52025;SDS011;38041;40.058;18.328;2023-02-22T06:22:50;51.60;;;22.73;;
52025;SDS011;38041;40.058;18.328;2023-02-22T06:25:19;55.83;;;24.90;;
52025;SDS011;38041;40.058;18.328;2023-02-22T06:27:47;41.50;;;23.23;;
52025;SDS011;38041;40.058;18.328;2023-02-22T06:30:16;41.63;;;23.47;;
52025;SDS011;38041;40.058;18.328;2023-02-22T06:32:44;47.10;;;24.17;;
52025;SDS011;38041;40.058;18.328;2023-02-22T06:35:13;40.57;;;23.60;;
52025;SDS011;38041;40.058;18.328;2023-02-22T06:37:40;36.57;;;23.67;;
52025;SDS011;38041;40.058;18.328;2023-02-22T06:40:08;37.50;;;23.93;;
52025;SDS011;38041;40.058;18.328;2023-02-22T06:42:37;38.73;;;24.70;;
52025;SDS011;38041;40.058;18.328;2023-02-22T06:45:05;36.70;;;21.77;;
52025;SDS011;38041;40.058;18.328;2023-02-22T06:47:36;37.60;;;23.83;;
52025;SDS011;38041;40.058;18.328;2023-02-22T06:50:04;37.77;;;23.47;;
52025;SDS011;38041;40.058;18.328;2023-02-22T06:52:31;37.43;;;24.40;;
52025;SDS011;38041;40.058;18.328;2023-02-22T06:54:59;38.47;;;26.07;;
52025;SDS011;38041;40.058;18.328;2023-02-22T06:57:27;44.57;;;27.83;;
52025;SDS011;38041;40.058;18.328;2023-02-22T06:59:55;41.57;;;27.50;;
52025;SDS011;38041;40.058;18.328;2023-02-22T07:02:23;43.63;;;29.27;;
52025;SDS011;38041;40.058;18.328;2023-02-22T07:04:50;45.43;;;30.27;;
52025;SDS011;38041;40.058;18.328;2023-02-22T07:07:20;52.83;;;32.47;;
52025;SDS011;38041;40.058;18.328;2023-02-22T07:09:49;49.33;;;31.43;;
52025;SDS011;38041;40.058;18.328;2023-02-22T07:12:16;51.00;;;31.10;;
52025;SDS011;38041;40.058;18.328;2023-02-22T07:14:44;50.40;;;31.40;;
52025;SDS011;38041;40.058;18.328;2023-02-22T07:17:12;44.03;;;28.17;;
52025;SDS011;38041;40.058;18.328;2023-02-22T07:19:39;49.07;;;31.80;;
52025;SDS011;38041;40.058;18.328;2023-02-22T07:22:07;64.50;;;40.77;;
52025;SDS011;38041;40.058;18.328;2023-02-22T07:24:35;65.47;;;43.43;;
52025;SDS011;38041;40.058;18.328;2023-02-22T07:27:02;55.70;;;36.40;;
52025;SDS011;38041;40.058;18.328;2023-02-22T07:29:30;63.37;;;43.10;;
52025;SDS011;38041;40.058;18.328;2023-02-22T07:31:59;64.23;;;43.10;;
52025;SDS011;38041;40.058;18.328;2023-02-22T07:34:26;60.30;;;40.07;;
52025;SDS011;38041;40.058;18.328;2023-02-22T07:36:54;52.73;;;38.40;;
52025;SDS011;38041;40.058;18.328;2023-02-22T07:39:22;54.93;;;37.90;;
52025;SDS011;38041;40.058;18.328;2023-02-22T07:41:49;48.17;;;36.10;;
52025;SDS011;38041;40.058;18.328;2023-02-22T07:44:21;51.03;;;32.47;;
52025;SDS011;38041;40.058;18.328;2023-02-22T07:46:49;46.33;;;29.90;;
52025;SDS011;38041;40.058;18.328;2023-02-22T07:49:17;43.53;;;31.73;;
52025;SDS011;38041;40.058;18.328;2023-02-22T07:51:44;47.57;;;30.87;;
52025;SDS011;38041;40.058;18.328;2023-02-22T07:54:12;42.43;;;29.40;;
52025;SDS011;38041;40.058;18.328;2023-02-22T07:56:45;40.87;;;28.53;;
52025;SDS011;38041;40.058;18.328;2023-02-22T07:59:13;44.43;;;31.90;;
52025;SDS011;38041;40.058;18.328;2023-02-22T08:01:41;58.40;;;40.80;;
52025;SDS011;38041;40.058;18.328;2023-02-22T08:04:08;48.53;;;33.37;;
52025;SDS011;38041;40.058;18.328;2023-02-22T08:06:36;40.63;;;29.93;;
52025;SDS011;38041;40.058;18.328;2023-02-22T08:09:04;46.20;;;26.70;;
52025;SDS011;38041;40.058;18.328;2023-02-22T08:11:32;34.03;;;25.40;;
52025;SDS011;38041;40.058;18.328;2023-02-22T08:14:00;34.47;;;24.93;;
52025;SDS011;38041;40.058;18.328;2023-02-22T08:16:27;39.20;;;27.10;;
52025;SDS011;38041;40.058;18.328;2023-02-22T08:18:55;29.33;;;22.93;;
52025;SDS011;38041;40.058;18.328;2023-02-22T08:21:23;31.43;;;22.13;;
52025;SDS011;38041;40.058;18.328;2023-02-22T08:23:50;33.37;;;22.57;;
52025;SDS011;38041;40.058;18.328;2023-02-22T08:26:20;28.10;;;21.17;;
52025;SDS011;38041;40.058;18.328;2023-02-22T08:28:49;31.40;;;22.33;;
52025;SDS011;38041;40.058;18.328;2023-02-22T08:31:16;27.13;;;19.50;;
52025;SDS011;38041;40.058;18.328;2023-02-22T08:33:47;24.50;;;19.00;;
52025;SDS011;38041;40.058;18.328;2023-02-22T08:36:15;19.10;;;14.57;;
52025;SDS011;38041;40.058;18.328;2023-02-22T08:38:44;14.07;;;11.50;;
52025;SDS011;38041;40.058;18.328;2023-02-22T08:41:11;15.10;;;10.90;;
52025;SDS011;38041;40.058;18.328;2023-02-22T08:43:39;16.33;;;11.20;;
52025;SDS011;38041;40.058;18.328;2023-02-22T08:46:07;18.97;;;15.37;;
52025;SDS011;38041;40.058;18.328;2023-02-22T08:48:34;16.43;;;11.67;;
52025;SDS011;38041;40.058;18.328;2023-02-22T08:51:02;45.63;;;13.87;;
52025;SDS011;38041;40.058;18.328;2023-02-22T08:53:30;14.80;;;10.33;;
52025;SDS011;38041;40.058;18.328;2023-02-22T08:55:58;13.47;;;10.97;;
52025;SDS011;38041;40.058;18.328;2023-02-22T08:58:26;18.73;;;12.60;;
52025;SDS011;38041;40.058;18.328;2023-02-22T09:00:53;19.57;;;13.90;;
52025;SDS011;38041;40.058;18.328;2023-02-22T09:03:21;21.50;;;11.67;;
52025;SDS011;38041;40.058;18.328;2023-02-22T09:05:49;13.90;;;10.67;;
52025;SDS011;38041;40.058;18.328;2023-02-22T09:08:17;14.53;;;10.90;;
52025;SDS011;38041;40.058;18.328;2023-02-22T09:10:45;16.03;;;10.93;;
52025;SDS011;38041;40.058;18.328;2023-02-22T09:13:12;19.40;;;12.47;;
52025;SDS011;38041;40.058;18.328;2023-02-22T09:15:41;19.97;;;13.73;;
52025;SDS011;38041;40.058;18.328;2023-02-22T09:18:10;19.93;;;12.30;;
52025;SDS011;38041;40.058;18.328;2023-02-22T09:20:40;13.97;;;11.13;;
52025;SDS011;38041;40.058;18.328;2023-02-22T09:23:08;16.23;;;11.43;;
52025;SDS011;38041;40.058;18.328;2023-02-22T09:25:36;32.90;;;22.17;;
52025;SDS011;38041;40.058;18.328;2023-02-22T09:28:06;19.63;;;13.73;;
52025;SDS011;38041;40.058;18.328;2023-02-22T09:30:34;27.67;;;19.77;;
52025;SDS011;38041;40.058;18.328;2023-02-22T09:33:03;18.30;;;13.33;;
52025;SDS011;38041;40.058;18.328;2023-02-22T09:35:31;21.33;;;15.27;;
52025;SDS011;38041;40.058;18.328;2023-02-22T09:38:03;10.60;;;6.43;;
52025;SDS011;38041;40.058;18.328;2023-02-22T09:40:32;11.50;;;8.10;;
52025;SDS011;38041;40.058;18.328;2023-02-22T09:48:05;11.37;;;8.27;;
52025;SDS011;38041;40.058;18.328;2023-02-22T09:50:46;9.50;;;7.17;;
52025;SDS011;38041;40.058;18.328;2023-02-22T09:55:48;12.00;;;5.53;;
52025;SDS011;38041;40.058;18.328;2023-02-22T10:01:03;6.83;;;5.23;;
52025;SDS011;38041;40.058;18.328;2023-02-22T10:03:41;5.88;;;5.28;;
52025;SDS011;38041;40.058;18.328;2023-02-22T10:06:14;8.97;;;6.23;;
52025;SDS011;38041;40.058;18.328;2023-02-22T10:08:43;8.07;;;5.20;;
52025;SDS011;38041;40.058;18.328;2023-02-22T10:13:50;10.57;;;6.43;;
52025;SDS011;38041;40.058;18.328;2023-02-22T10:16:35;10.60;;;7.13;;
52025;SDS011;38041;40.058;18.328;2023-02-22T10:27:05;13.50;;;8.20;;
52025;SDS011;38041;40.058;18.328;2023-02-22T10:32:04;18.93;;;12.73;;
52025;SDS011;38041;40.058;18.328;2023-02-22T10:34:37;22.90;;;16.60;;
52025;SDS011;38041;40.058;18.328;2023-02-22T10:37:20;16.37;;;10.20;;
52025;SDS011;38041;40.058;18.328;2023-02-22T10:39:53;8.85;;;6.78;;
52025;SDS011;38041;40.058;18.328;2023-02-22T10:42:24;14.90;;;10.43;;
52025;SDS011;38041;40.058;18.328;2023-02-22T10:44:52;10.53;;;8.57;;
52025;SDS011;38041;40.058;18.328;2023-02-22T10:47:20;14.43;;;10.07;;
52025;SDS011;38041;40.058;18.328;2023-02-22T10:49:52;20.77;;;13.20;;
52025;SDS011;38041;40.058;18.328;2023-02-22T10:52:29;9.97;;;7.10;;
52025;SDS011;38041;40.058;18.328;2023-02-22T10:54:57;11.38;;;8.80;;
52025;SDS011;38041;40.058;18.328;2023-02-22T10:57:40;20.77;;;14.80;;
52025;SDS011;38041;40.058;18.328;2023-02-22T11:00:14;11.63;;;7.17;;
52025;SDS011;38041;40.058;18.328;2023-02-22T11:02:52;12.73;;;10.40;;
52025;SDS011;38041;40.058;18.328;2023-02-22T11:05:35;20.23;;;13.33;;
52025;SDS011;38041;40.058;18.328;2023-02-22T11:10:40;14.30;;;8.00;;
52025;SDS011;38041;40.058;18.328;2023-02-22T11:15:57;10.83;;;8.37;;
52025;SDS011;38041;40.058;18.328;2023-02-22T11:18:26;16.57;;;12.17;;
52025;SDS011;38041;40.058;18.328;2023-02-22T11:20:59;12.97;;;8.73;;
52025;SDS011;38041;40.058;18.328;2023-02-22T11:23:27;9.60;;;6.50;;
52025;SDS011;38041;40.058;18.328;2023-02-22T11:25:59;11.23;;;7.87;;
52025;SDS011;38041;40.058;18.328;2023-02-22T11:28:28;10.57;;;7.80;;
52025;SDS011;38041;40.058;18.328;2023-02-22T11:30:57;15.57;;;10.70;;
52025;SDS011;38041;40.058;18.328;2023-02-22T11:33:25;13.30;;;9.20;;
52025;SDS011;38041;40.058;18.328;2023-02-22T11:35:55;17.13;;;12.30;;
52025;SDS011;38041;40.058;18.328;2023-02-22T11:38:30;11.60;;;8.60;;
52025;SDS011;38041;40.058;18.328;2023-02-22T11:43:45;9.50;;;7.27;;
52025;SDS011;38041;40.058;18.328;2023-02-22T11:46:18;8.93;;;6.57;;
52025;SDS011;38041;40.058;18.328;2023-02-22T11:48:54;10.80;;;7.67;;
52025;SDS011;38041;40.058;18.328;2023-02-22T11:51:26;15.70;;;7.70;;
52025;SDS011;38041;40.058;18.328;2023-02-22T11:59:21;9.77;;;6.53;;
52025;SDS011;38041;40.058;18.328;2023-02-22T12:04:27;9.40;;;6.80;;
52025;SDS011;38041;40.058;18.328;2023-02-22T12:20:30;6.37;;;5.50;;
52025;SDS011;38041;40.058;18.328;2023-02-22T12:25:31;6.87;;;5.63;;
52025;SDS011;38041;40.058;18.328;2023-02-22T12:28:20;8.83;;;5.33;;
52025;SDS011;38041;40.058;18.328;2023-02-22T12:30:52;8.87;;;7.03;;
52025;SDS011;38041;40.058;18.328;2023-02-22T12:33:24;12.57;;;8.07;;
52025;SDS011;38041;40.058;18.328;2023-02-22T12:35:54;7.80;;;6.00;;
52025;SDS011;38041;40.058;18.328;2023-02-22T12:38:41;6.87;;;5.67;;
52025;SDS011;38041;40.058;18.328;2023-02-22T12:43:45;7.27;;;6.03;;
52025;SDS011;38041;40.058;18.328;2023-02-22T12:46:27;8.50;;;5.00;;
52025;SDS011;38041;40.058;18.328;2023-02-22T12:49:03;8.07;;;5.73;;
52025;SDS011;38041;40.058;18.328;2023-02-22T12:56:55;8.00;;;6.00;;
52025;SDS011;38041;40.058;18.328;2023-02-22T12:59:31;6.30;;;5.60;;
52025;SDS011;38041;40.058;18.328;2023-02-22T13:02:02;14.57;;;9.43;;
52025;SDS011;38041;40.058;18.328;2023-02-22T13:04:31;10.13;;;7.53;;
52025;SDS011;38041;40.058;18.328;2023-02-22T13:07:16;11.73;;;8.50;;
52025;SDS011;38041;40.058;18.328;2023-02-22T13:17:40;28.97;;;8.63;;
52025;SDS011;38041;40.058;18.328;2023-02-22T13:27:46;12.73;;;8.63;;
52025;SDS011;38041;40.058;18.328;2023-02-22T13:30:17;17.60;;;9.10;;
52025;SDS011;38041;40.058;18.328;2023-02-22T13:33:08;19.07;;;9.60;;
52025;SDS011;38041;40.058;18.328;2023-02-22T13:51:46;19.17;;;11.60;;
52025;SDS011;38041;40.058;18.328;2023-02-22T13:54:14;14.17;;;8.17;;
52025;SDS011;38041;40.058;18.328;2023-02-22T13:56:44;21.50;;;10.50;;
52025;SDS011;38041;40.058;18.328;2023-02-22T13:59:22;12.83;;;9.40;;
52025;SDS011;38041;40.058;18.328;2023-02-22T14:01:50;10.07;;;7.97;;
52025;SDS011;38041;40.058;18.328;2023-02-22T14:04:20;11.03;;;9.13;;
52025;SDS011;38041;40.058;18.328;2023-02-22T14:06:48;46.93;;;12.27;;
52025;SDS011;38041;40.058;18.328;2023-02-22T14:12:03;10.37;;;8.33;;
52025;SDS011;38041;40.058;18.328;2023-02-22T14:14:31;22.00;;;15.17;;
52025;SDS011;38041;40.058;18.328;2023-02-22T14:17:15;17.63;;;11.63;;
52025;SDS011;38041;40.058;18.328;2023-02-22T14:19:58;15.87;;;11.67;;
52025;SDS011;38041;40.058;18.328;2023-02-22T14:22:27;13.67;;;10.27;;
52025;SDS011;38041;40.058;18.328;2023-02-22T14:24:55;74.23;;;49.77;;
52025;SDS011;38041;40.058;18.328;2023-02-22T14:27:23;48.17;;;27.30;;
52025;SDS011;38041;40.058;18.328;2023-02-22T14:29:52;17.70;;;8.97;;
52025;SDS011;38041;40.058;18.328;2023-02-22T14:32:20;13.37;;;11.07;;
52025;SDS011;38041;40.058;18.328;2023-02-22T14:34:57;13.17;;;8.63;;
52025;SDS011;38041;40.058;18.328;2023-02-22T14:37:29;17.47;;;7.10;;
52025;SDS011;38041;40.058;18.328;2023-02-22T14:40:00;12.77;;;7.77;;
52025;SDS011;38041;40.058;18.328;2023-02-22T14:42:42;11.13;;;7.97;;
52025;SDS011;38041;40.058;18.328;2023-02-22T14:52:43;9.25;;;7.80;;
52025;SDS011;38041;40.058;18.328;2023-02-22T14:55:30;16.08;;;11.18;;
52025;SDS011;38041;40.058;18.328;2023-02-22T15:00:47;17.08;;;11.18;;
52025;SDS011;38041;40.058;18.328;2023-02-22T15:03:16;16.87;;;12.67;;
52025;SDS011;38041;40.058;18.328;2023-02-22T15:05:44;16.73;;;13.13;;
52025;SDS011;38041;40.058;18.328;2023-02-22T15:08:13;24.40;;;14.57;;
52025;SDS011;38041;40.058;18.328;2023-02-22T15:10:46;16.50;;;11.37;;
52025;SDS011;38041;40.058;18.328;2023-02-22T15:13:18;15.83;;;12.03;;
52025;SDS011;38041;40.058;18.328;2023-02-22T15:15:47;18.05;;;13.90;;
52025;SDS011;38041;40.058;18.328;2023-02-22T15:20:50;20.17;;;15.43;;
52025;SDS011;38041;40.058;18.328;2023-02-22T15:23:28;19.27;;;13.57;;
52025;SDS011;38041;40.058;18.328;2023-02-22T15:25:58;20.30;;;14.68;;
52025;SDS011;38041;40.058;18.328;2023-02-22T15:28:27;22.45;;;16.10;;
52025;SDS011;38041;40.058;18.328;2023-02-22T15:31:21;22.20;;;17.05;;
52025;SDS011;38041;40.058;18.328;2023-02-22T15:33:44;21.92;;;15.80;;
52025;SDS011;38041;40.058;18.328;2023-02-22T15:36:14;17.90;;;14.35;;
52025;SDS011;38041;40.058;18.328;2023-02-22T15:38:49;31.50;;;21.88;;
52025;SDS011;38041;40.058;18.328;2023-02-22T15:41:29;25.77;;;14.68;;
52025;SDS011;38041;40.058;18.328;2023-02-22T15:43:58;21.00;;;15.23;;
52025;SDS011;38041;40.058;18.328;2023-02-22T15:46:29;20.00;;;14.82;;
52025;SDS011;38041;40.058;18.328;2023-02-22T15:49:16;33.45;;;21.25;;
52025;SDS011;38041;40.058;18.328;2023-02-22T15:51:45;30.10;;;22.02;;
52025;SDS011;38041;40.058;18.328;2023-02-22T15:54:17;16.67;;;11.55;;
52025;SDS011;38041;40.058;18.328;2023-02-22T15:56:52;53.40;;;36.08;;
52025;SDS011;38041;40.058;18.328;2023-02-22T15:59:23;34.10;;;23.88;;
52025;SDS011;38041;40.058;18.328;2023-02-22T16:01:56;63.75;;;43.22;;
52025;SDS011;38041;40.058;18.328;2023-02-22T16:04:25;48.90;;;34.83;;
52025;SDS011;38041;40.058;18.328;2023-02-22T16:07:01;30.65;;;21.98;;
52025;SDS011;38041;40.058;18.328;2023-02-22T16:09:29;30.67;;;23.45;;
52025;SDS011;38041;40.058;18.328;2023-02-22T16:12:32;32.72;;;23.70;;
52025;SDS011;38041;40.058;18.328;2023-02-22T16:14:58;62.33;;;43.33;;
52025;SDS011;38041;40.058;18.328;2023-02-22T16:17:28;48.22;;;31.63;;
52025;SDS011;38041;40.058;18.328;2023-02-22T16:19:57;50.77;;;35.73;;
52025;SDS011;38041;40.058;18.328;2023-02-22T16:22:32;33.53;;;26.80;;
52025;SDS011;38041;40.058;18.328;2023-02-22T16:27:49;25.10;;;16.33;;
52025;SDS011;38041;40.058;18.328;2023-02-22T16:30:28;20.17;;;16.20;;
52025;SDS011;38041;40.058;18.328;2023-02-22T16:32:58;38.33;;;25.17;;
52025;SDS011;38041;40.058;18.328;2023-02-22T16:35:27;28.90;;;21.37;;
52025;SDS011;38041;40.058;18.328;2023-02-22T16:37:59;29.37;;;21.70;;
52025;SDS011;38041;40.058;18.328;2023-02-22T16:40:29;23.23;;;18.20;;
52025;SDS011;38041;40.058;18.328;2023-02-22T16:43:03;26.90;;;20.20;;
52025;SDS011;38041;40.058;18.328;2023-02-22T16:45:32;28.27;;;20.30;;
52025;SDS011;38041;40.058;18.328;2023-02-22T16:48:17;48.57;;;34.00;;
52025;SDS011;38041;40.058;18.328;2023-02-22T16:50:45;32.10;;;19.23;;
52025;SDS011;38041;40.058;18.328;2023-02-22T16:53:17;31.70;;;22.33;;
52025;SDS011;38041;40.058;18.328;2023-02-22T16:55:45;38.00;;;27.13;;
52025;SDS011;38041;40.058;18.328;2023-02-22T16:58:14;45.00;;;28.70;;
52025;SDS011;38041;40.058;18.328;2023-02-22T17:00:42;51.77;;;36.03;;
52025;SDS011;38041;40.058;18.328;2023-02-22T17:03:13;63.40;;;41.40;;
52025;SDS011;38041;40.058;18.328;2023-02-22T17:05:41;66.00;;;42.90;;
52025;SDS011;38041;40.058;18.328;2023-02-22T17:08:09;65.50;;;44.87;;
52025;SDS011;38041;40.058;18.328;2023-02-22T17:10:37;64.63;;;44.13;;